CYVQ

Norman Wells Airport

Norman Wells, Northwest Territories, Canada
METAR CYVQ 192200Z 31009G16KT 280V340 30SM SCT055 BKN086 BKN260 02/M08 A3037 RMK SC4AC2CI1 CI TR SLP291
Observed Flight Rules
Sep-19 @ 22:00 UTC (59 minutes ago) Visual Flight Rules
Wind Visibility Clouds
310° at 9 knots
 Gusting to 16 knots
30 miles
  • Scattered at 5,500' AGL
  • Broken at 8,600' AGL
  • Broken at 26,000' AGL
Temperatures Readings
Current 2°C / 36°F
Dewpoint -8°C / 18°F
Humidity 48%
Altimeter 30.37" Hg
Pressure 1029.1 hPa
Elevation 74
METAR CYVQ 192200Z 31009G16KT 280V340 30SM SCT055 BKN086 BKN260 02/M08 A3037 RMK SC4AC2CI1 CI TR SLP291
Observed Flight Rules
Sep-19 @ 22:00 UTC
(59 minutes ago)
VFR
Wind Visibility
310° at 9 knots
 Gusting to 16 knots
30 miles
Clouds
  • Scattered at 5,500' AGL
  • Broken at 8,600' AGL
  • Broken at 26,000' AGL
Temperature Dewpoint
2°C / 36°F -8°C / 18°F
Humidity Altimeter Pressure
48% 30.37" Hg 1029.1 hPa